createdAt,value
2019-05-19T00:00:28.116Z,11.37
2019-05-19T00:01:28.127Z,11.40
2019-05-19T00:02:28.103Z,11.35
2019-05-19T00:03:28.078Z,11.37
2019-05-19T00:04:28.095Z,11.33
2019-05-19T00:05:28.052Z,11.36
2019-05-19T00:06:28.069Z,11.22
2019-05-19T00:07:28.027Z,11.36
2019-05-19T00:08:28.017Z,11.28
2019-05-19T00:09:28.010Z,11.25
2019-05-19T00:10:28.031Z,11.25
2019-05-19T00:11:27.984Z,11.24
2019-05-19T00:12:28.982Z,11.24
2019-05-19T00:13:27.964Z,11.18
2019-05-19T00:14:27.949Z,11.17
2019-05-19T00:15:27.937Z,11.06
2019-05-19T00:16:27.989Z,11.04
2019-05-19T00:17:27.913Z,11.00
2019-05-19T00:18:27.913Z,11.06
2019-05-19T00:19:27.884Z,11.06
2019-05-19T00:20:27.876Z,10.99
2019-05-19T00:21:27.866Z,10.96
2019-05-19T00:22:27.895Z,10.88
2019-05-19T00:23:27.850Z,10.89
2019-05-19T00:24:27.832Z,10.89
2019-05-19T00:25:27.831Z,10.84
2019-05-19T00:26:27.861Z,10.79
2019-05-19T00:27:27.793Z,10.76
2019-05-19T00:28:27.836Z,10.67
2019-05-19T00:29:27.770Z,10.66
2019-05-19T00:30:27.759Z,10.68
2019-05-19T00:31:27.744Z,10.66
2019-05-19T00:32:27.734Z,10.53
2019-05-19T00:33:27.743Z,10.56
2019-05-19T00:34:27.754Z,10.42
2019-05-19T00:35:27.765Z,10.42
2019-05-19T00:36:27.690Z,10.36
2019-05-19T00:37:27.677Z,10.33
2019-05-19T00:38:27.673Z,10.42
2019-05-19T00:39:27.683Z,10.33
2019-05-19T00:40:27.669Z,10.33
2019-05-19T00:41:27.637Z,10.25
2019-05-19T00:42:27.623Z,10.18
2019-05-19T00:43:27.612Z,10.20
2019-05-19T00:44:27.600Z,10.14
2019-05-19T00:45:27.657Z,10.14
2019-05-19T00:46:27.588Z,10.14
2019-05-19T00:47:27.567Z,10.12
2019-05-19T00:48:27.563Z,10.12
2019-05-19T00:49:40.661Z,10.01
2019-05-19T00:50:27.538Z,9.96
2019-05-19T00:51:28.011Z,9.99
2019-05-19T00:52:27.536Z,10.02
2019-05-19T00:53:27.497Z,9.89
2019-05-19T00:54:27.486Z,9.86
2019-05-19T00:55:27.477Z,9.87
2019-05-19T00:56:27.491Z,9.86
2019-05-19T00:57:27.454Z,9.76
2019-05-19T00:58:27.465Z,9.83
2019-05-19T00:59:27.444Z,9.79
2019-05-19T01:00:27.431Z,9.79
2019-05-19T01:01:27.410Z,9.72
2019-05-19T01:02:27.448Z,9.68
2019-05-19T01:03:27.398Z,9.69
2019-05-19T01:04:27.412Z,9.60
2019-05-19T01:05:27.388Z,9.65
2019-05-19T01:06:27.386Z,9.57
2019-05-19T01:07:27.344Z,9.61
2019-05-19T01:08:27.359Z,9.57
2019-05-19T01:09:27.320Z,9.57
2019-05-19T01:10:27.329Z,9.48
2019-05-19T01:11:27.332Z,9.47
2019-05-19T01:12:27.286Z,9.48
2019-05-19T01:13:27.309Z,9.43
2019-05-19T01:14:27.273Z,9.35
2019-05-19T01:15:27.255Z,9.39
2019-05-19T01:16:27.269Z,9.35
2019-05-19T01:17:27.272Z,9.36
2019-05-19T01:18:27.212Z,9.39
2019-05-19T01:19:27.222Z,9.36
2019-05-19T01:20:27.192Z,9.33
2019-05-19T01:21:27.189Z,9.26
2019-05-19T01:22:27.203Z,9.32
2019-05-19T01:23:27.165Z,9.18
2019-05-19T01:24:27.193Z,9.32
2019-05-19T01:25:27.151Z,9.24
2019-05-19T01:26:27.125Z,9.23
2019-05-19T01:27:27.120Z,9.20
2019-05-19T01:28:27.134Z,9.20
2019-05-19T01:29:27.102Z,9.28
2019-05-19T01:30:27.102Z,9.20
2019-05-19T01:31:27.080Z,9.17
2019-05-19T01:32:27.053Z,9.28
2019-05-19T01:33:27.074Z,9.21
2019-05-19T01:34:27.067Z,9.15
2019-05-19T01:35:27.056Z,9.15
2019-05-19T01:36:27.024Z,9.13
2019-05-19T01:37:27.005Z,9.08
2019-05-19T01:38:26.992Z,9.14
2019-05-19T01:39:26.993Z,9.15
2019-05-19T01:40:27.004Z,9.13
2019-05-19T01:41:26.997Z,9.10
2019-05-19T01:42:26.946Z,9.05
2019-05-19T01:43:26.936Z,9.13
2019-05-19T01:44:26.927Z,9.08
2019-05-19T01:45:26.918Z,9.13
2019-05-19T01:46:26.922Z,9.05
2019-05-19T01:47:26.916Z,9.15
2019-05-19T01:48:28.130Z,9.11
2019-05-19T01:49:26.866Z,9.10
2019-05-19T01:50:26.867Z,9.10
2019-05-19T01:51:26.851Z,9.10
2019-05-19T01:52:26.895Z,9.13
2019-05-19T01:53:26.828Z,9.04
2019-05-19T01:54:26.817Z,9.15
2019-05-19T01:55:26.808Z,9.10
2019-05-19T01:56:26.805Z,9.04
2019-05-19T01:57:26.791Z,9.15
2019-05-19T01:58:26.784Z,9.01
2019-05-19T01:59:26.811Z,8.98
2019-05-19T02:00:26.739Z,9.05
2019-05-19T02:01:26.730Z,8.96
2019-05-19T02:02:26.725Z,9.01
2019-05-19T02:03:26.738Z,9.01
2019-05-19T02:04:26.699Z,9.02
2019-05-19T02:05:26.717Z,9.01
2019-05-19T02:06:26.677Z,9.02
2019-05-19T02:07:26.674Z,8.98
2019-05-19T02:08:26.655Z,9.01
2019-05-19T02:09:26.672Z,9.05
2019-05-19T02:10:26.639Z,8.99
2019-05-19T02:11:26.669Z,8.86
2019-05-19T02:12:26.689Z,8.95
2019-05-19T02:13:26.598Z,8.81
2019-05-19T02:14:26.590Z,8.83
2019-05-19T02:15:26.597Z,8.76
2019-05-19T02:16:26.575Z,8.66
2019-05-19T02:17:26.601Z,8.79
2019-05-19T02:18:26.540Z,8.83
2019-05-19T02:19:26.526Z,8.74
2019-05-19T02:20:33.306Z,8.73
2019-05-19T02:21:27.516Z,8.76
2019-05-19T02:22:26.497Z,8.70
2019-05-19T02:23:26.539Z,8.70
2019-05-19T02:24:26.469Z,8.74
2019-05-19T02:25:26.461Z,8.79
2019-05-19T02:26:26.471Z,8.76
2019-05-19T02:27:26.440Z,8.71
2019-05-19T02:28:26.427Z,8.68
2019-05-19T02:29:26.446Z,8.66
2019-05-19T02:30:26.407Z,8.68
2019-05-19T02:31:26.392Z,8.66
2019-05-19T02:32:26.424Z,8.68
2019-05-19T02:33:26.388Z,8.71
2019-05-19T02:34:26.356Z,8.74
2019-05-19T02:35:26.374Z,8.74
2019-05-19T02:36:26.340Z,8.68
2019-05-19T02:37:26.316Z,8.76
2019-05-19T02:38:26.323Z,8.71
2019-05-19T02:39:26.299Z,8.68
2019-05-19T02:40:26.285Z,8.66
2019-05-19T02:41:26.309Z,8.71
2019-05-19T02:42:26.272Z,8.63
2019-05-19T02:43:26.266Z,8.65
2019-05-19T02:44:26.237Z,8.65
2019-05-19T02:45:26.234Z,8.66
2019-05-19T02:46:26.217Z,8.62
2019-05-19T02:47:26.228Z,8.65
2019-05-19T02:48:26.205Z,8.61
2019-05-19T02:49:26.183Z,8.62
2019-05-19T02:50:26.180Z,8.63
2019-05-19T02:51:26.162Z,8.59
2019-05-19T02:52:26.150Z,8.52
2019-05-19T02:53:26.201Z,8.50
2019-05-19T02:54:26.122Z,8.55
2019-05-19T02:55:26.115Z,8.56
2019-05-19T02:56:26.102Z,8.53
2019-05-19T02:57:26.094Z,8.59
2019-05-19T02:58:26.077Z,8.56
2019-05-19T02:59:26.122Z,8.61
2019-05-19T03:00:26.052Z,8.61
2019-05-19T03:01:26.047Z,8.61
2019-05-19T03:02:26.025Z,8.56
2019-05-19T03:03:26.098Z,8.53
2019-05-19T03:04:26.023Z,8.61
2019-05-19T03:05:26.062Z,8.59
2019-05-19T03:06:25.991Z,8.55
2019-05-19T03:07:25.978Z,8.55
2019-05-19T03:08:25.964Z,8.45
2019-05-19T03:09:25.951Z,8.53
2019-05-19T03:10:25.976Z,8.53
2019-05-19T03:11:25.967Z,8.52
2019-05-19T03:12:25.924Z,8.43
2019-05-19T03:13:25.915Z,8.50
2019-05-19T03:14:25.943Z,8.47
2019-05-19T03:15:25.885Z,8.37
2019-05-19T03:16:25.885Z,8.45
2019-05-19T03:17:25.882Z,8.50
2019-05-19T03:18:25.853Z,8.41
2019-05-19T03:19:25.834Z,8.45
2019-05-19T03:20:25.851Z,8.47
2019-05-19T03:21:25.849Z,8.45
2019-05-19T03:22:25.802Z,8.43
2019-05-19T03:23:25.792Z,8.48
2019-05-19T03:24:25.778Z,8.50
2019-05-19T03:25:25.823Z,8.40
2019-05-19T03:26:25.758Z,8.37
2019-05-19T03:27:25.794Z,8.37
2019-05-19T03:28:25.731Z,8.38
2019-05-19T03:29:25.765Z,8.44
2019-05-19T03:30:25.727Z,8.40
2019-05-19T03:31:25.721Z,8.41
2019-05-19T03:32:25.715Z,8.52
2019-05-19T03:33:25.700Z,8.52
2019-05-19T03:34:25.705Z,8.40
2019-05-19T03:35:25.661Z,8.44
2019-05-19T03:36:25.656Z,8.50
2019-05-19T03:37:25.652Z,8.56
2019-05-19T03:38:25.650Z,8.56
2019-05-19T03:39:25.747Z,8.56
2019-05-19T03:40:25.605Z,8.65
2019-05-19T03:41:25.582Z,8.65
2019-05-19T03:42:25.621Z,8.70
2019-05-19T03:43:25.589Z,8.68
2019-05-19T03:44:25.600Z,8.71
2019-05-19T03:45:25.769Z,8.68
2019-05-19T03:46:25.550Z,8.68
2019-05-19T03:47:25.515Z,8.66
2019-05-19T03:48:25.515Z,8.70
2019-05-19T03:49:25.526Z,8.62
2019-05-19T03:50:25.484Z,8.68
2019-05-19T03:51:30.960Z,8.66
2019-05-19T03:52:26.486Z,8.66
2019-05-19T03:53:25.464Z,8.73
2019-05-19T03:54:25.439Z,8.66
2019-05-19T03:55:25.444Z,8.76
2019-05-19T03:56:25.501Z,8.73
2019-05-19T03:57:25.407Z,8.84
2019-05-19T03:58:25.390Z,8.84
2019-05-19T03:59:25.397Z,8.77
2019-05-19T04:00:25.395Z,8.89
2019-05-19T04:01:25.353Z,8.87
2019-05-19T04:02:25.338Z,8.89
2019-05-19T04:03:25.336Z,8.91
2019-05-19T04:04:25.351Z,8.79
2019-05-19T04:05:25.341Z,8.94
2019-05-19T04:06:25.320Z,8.86
2019-05-19T04:07:25.285Z,8.86
2019-05-19T04:08:25.279Z,8.92
2019-05-19T04:09:25.264Z,8.94
2019-05-19T04:10:25.255Z,8.99
2019-05-19T04:11:25.329Z,9.05
2019-05-19T04:12:25.231Z,9.02
2019-05-19T04:13:25.226Z,8.99
2019-05-19T04:14:25.218Z,9.02
2019-05-19T04:15:25.196Z,9.11
2019-05-19T04:16:25.198Z,9.02
2019-05-19T04:17:25.208Z,9.13
2019-05-19T04:18:25.194Z,9.15
2019-05-19T04:19:25.149Z,9.18
2019-05-19T04:20:25.135Z,9.17
2019-05-19T04:21:25.132Z,9.24
2019-05-19T04:22:25.134Z,9.21
2019-05-19T04:23:25.135Z,9.26
2019-05-19T04:24:25.127Z,9.33
2019-05-19T04:25:25.082Z,9.33
2019-05-19T04:26:25.152Z,9.35
2019-05-19T04:27:25.055Z,9.48
2019-05-19T04:28:25.096Z,9.46
2019-05-19T04:29:25.038Z,9.48
2019-05-19T04:30:25.047Z,9.46
2019-05-19T04:31:25.126Z,9.47
2019-05-19T04:32:24.998Z,9.47
2019-05-19T04:33:24.992Z,9.56
2019-05-19T04:34:25.012Z,9.57
2019-05-19T04:35:24.969Z,9.64
2019-05-19T04:36:24.956Z,9.58
2019-05-19T04:37:24.971Z,9.61
2019-05-19T04:38:24.927Z,9.68
2019-05-19T04:39:24.917Z,9.69
2019-05-19T04:40:24.923Z,9.75
2019-05-19T04:41:24.902Z,9.79
2019-05-19T04:42:24.883Z,9.75
2019-05-19T04:43:24.901Z,9.79
2019-05-19T04:44:24.857Z,9.89
2019-05-19T04:45:24.890Z,9.86
2019-05-19T04:46:24.842Z,10.04
2019-05-19T04:47:24.839Z,10.05
2019-05-19T04:48:24.811Z,10.09
2019-05-19T04:49:24.831Z,10.22
2019-05-19T04:50:24.790Z,10.20
2019-05-19T04:51:24.798Z,10.29
2019-05-19T04:52:24.767Z,10.32
2019-05-19T04:53:24.765Z,10.52
2019-05-19T04:54:24.746Z,10.60
2019-05-19T04:55:24.739Z,10.64
2019-05-19T04:56:24.755Z,10.73
2019-05-19T04:57:24.731Z,10.73
2019-05-19T04:58:24.728Z,10.94
2019-05-19T04:59:24.916Z,11.00
2019-05-19T05:00:24.696Z,11.06
2019-05-19T05:01:24.697Z,11.09
2019-05-19T05:02:24.669Z,11.18
2019-05-19T05:03:24.674Z,11.32
2019-05-19T05:04:29.038Z,11.27
2019-05-19T05:05:24.647Z,11.25
2019-05-19T05:06:24.631Z,11.43
2019-05-19T05:07:24.626Z,11.47
2019-05-19T05:08:30.276Z,11.57
2019-05-19T05:09:25.610Z,11.61
2019-05-19T05:10:24.585Z,11.76
2019-05-19T05:11:24.592Z,11.72
2019-05-19T05:12:24.549Z,11.72
2019-05-19T05:13:24.564Z,11.82
2019-05-19T05:14:24.553Z,11.90
2019-05-19T05:15:24.522Z,11.82
2019-05-19T05:16:24.529Z,11.88
2019-05-19T05:17:24.551Z,12.04
2019-05-19T05:18:24.547Z,11.98
2019-05-19T05:19:24.543Z,12.04
2019-05-19T05:20:24.496Z,12.17
2019-05-19T05:21:24.458Z,12.27
2019-05-19T05:22:24.458Z,12.29
2019-05-19T05:23:24.438Z,12.41
2019-05-19T05:24:24.434Z,12.54
2019-05-19T05:25:24.437Z,12.71
2019-05-19T05:26:24.427Z,12.83
2019-05-19T05:27:24.403Z,12.83
2019-05-19T05:28:24.402Z,13.01
2019-05-19T05:29:24.377Z,13.10
2019-05-19T05:30:24.379Z,13.19
2019-05-19T05:31:24.405Z,13.23
2019-05-19T05:32:24.331Z,13.32
2019-05-19T05:33:25.080Z,13.48
2019-05-19T05:34:24.319Z,13.42
2019-05-19T05:35:24.305Z,13.51
2019-05-19T05:36:24.300Z,13.54
2019-05-19T05:37:24.297Z,13.52
2019-05-19T05:38:24.276Z,13.51
2019-05-19T05:39:24.313Z,13.67
2019-05-19T05:40:24.257Z,13.69
2019-05-19T05:41:24.268Z,13.73
2019-05-19T05:42:24.251Z,13.78
2019-05-19T05:43:24.267Z,13.77
2019-05-19T05:44:24.246Z,13.85
2019-05-19T05:45:24.190Z,13.82
2019-05-19T05:46:24.194Z,13.82
2019-05-19T05:47:24.237Z,13.89
2019-05-19T05:48:24.177Z,13.89
2019-05-19T05:49:24.151Z,13.95
2019-05-19T05:50:24.135Z,13.92
2019-05-19T05:51:24.151Z,13.97
2019-05-19T05:52:37.563Z,13.97
2019-05-19T05:53:25.139Z,13.97
2019-05-19T05:54:24.084Z,14.03
2019-05-19T05:55:24.075Z,14.06
2019-05-19T05:56:24.050Z,14.07
2019-05-19T05:57:24.106Z,14.07
2019-05-19T05:58:24.042Z,14.09
2019-05-19T05:59:24.065Z,14.12
2019-05-19T06:00:24.019Z,14.25
2019-05-19T06:01:24.009Z,14.17
2019-05-19T06:02:23.990Z,14.24
2019-05-19T06:03:23.967Z,14.33
2019-05-19T06:04:23.970Z,14.39
2019-05-19T06:05:23.998Z,14.43
2019-05-19T06:06:23.945Z,14.42
2019-05-19T06:07:24.002Z,14.40
2019-05-19T06:08:23.916Z,14.40
2019-05-19T06:09:23.928Z,14.52
2019-05-19T06:10:23.955Z,14.57
2019-05-19T06:11:24.941Z,14.57
2019-05-19T06:12:23.872Z,14.62
2019-05-19T06:13:24.015Z,14.58
2019-05-19T06:14:23.841Z,14.69
2019-05-19T06:15:23.868Z,14.58
2019-05-19T06:16:23.828Z,14.73
2019-05-19T06:17:23.841Z,14.64
2019-05-19T06:18:23.807Z,14.64
2019-05-19T06:19:23.928Z,14.68
2019-05-19T06:20:23.815Z,14.65
2019-05-19T06:21:23.817Z,14.91
2019-05-19T06:22:23.788Z,14.73
2019-05-19T06:23:23.749Z,14.81
2019-05-19T06:24:23.740Z,14.83
2019-05-19T06:25:23.732Z,14.73
2019-05-19T06:26:23.707Z,14.78
2019-05-19T06:27:23.726Z,14.86
2019-05-19T06:28:23.743Z,14.92
2019-05-19T06:29:24.689Z,14.94
2019-05-19T06:30:23.674Z,14.95
2019-05-19T06:31:23.670Z,14.92
2019-05-19T06:32:23.663Z,14.96
2019-05-19T06:33:23.687Z,14.96
2019-05-19T06:34:23.635Z,14.98
2019-05-19T06:35:23.665Z,14.98
2019-05-19T06:36:23.593Z,14.99
2019-05-19T06:37:23.619Z,15.10
2019-05-19T06:38:23.689Z,15.10
2019-05-19T06:39:23.560Z,15.17
2019-05-19T06:40:23.619Z,15.23
2019-05-19T06:41:23.539Z,15.25
2019-05-19T06:42:23.552Z,15.36
2019-05-19T06:43:23.557Z,15.39
2019-05-19T06:44:23.767Z,15.46
2019-05-19T06:45:23.546Z,15.60
2019-05-19T06:46:23.487Z,15.56
2019-05-19T06:47:23.484Z,15.67
2019-05-19T06:48:23.508Z,15.64
2019-05-19T06:49:23.548Z,15.68
2019-05-19T06:50:23.440Z,15.84
2019-05-19T06:51:23.447Z,15.82
2019-05-19T06:52:23.453Z,15.86
2019-05-19T06:53:23.394Z,15.87
2019-05-19T06:54:23.407Z,15.96
2019-05-19T06:55:23.441Z,15.93
2019-05-19T06:56:23.365Z,15.93
2019-05-19T06:57:23.362Z,15.96
2019-05-19T06:58:23.341Z,16.01
2019-05-19T06:59:23.341Z,16.09
2019-05-19T07:00:23.388Z,16.17
2019-05-19T07:01:23.340Z,16.15
2019-05-19T07:02:23.329Z,16.21
2019-05-19T07:03:23.295Z,16.33
2019-05-19T07:04:23.392Z,16.34
2019-05-19T07:05:23.306Z,16.24
2019-05-19T07:06:23.296Z,16.39
2019-05-19T07:07:23.245Z,16.50
2019-05-19T07:08:23.237Z,16.66
2019-05-19T07:09:23.251Z,16.85
2019-05-19T07:10:23.295Z,16.96
2019-05-19T07:11:23.200Z,17.01
2019-05-19T07:12:23.215Z,16.97
2019-05-19T07:13:23.193Z,17.03
2019-05-19T07:14:23.188Z,17.03
2019-05-19T07:15:23.214Z,17.11
2019-05-19T07:16:23.152Z,17.28
2019-05-19T07:17:23.159Z,17.30
2019-05-19T07:18:23.171Z,17.25
2019-05-19T07:19:23.130Z,17.23
2019-05-19T07:20:23.087Z,17.41
2019-05-19T07:21:23.076Z,17.43
2019-05-19T07:22:23.121Z,17.46
2019-05-19T07:23:28.450Z,17.44
2019-05-19T07:24:23.043Z,17.43
2019-05-19T07:25:23.040Z,17.43
2019-05-19T07:26:23.023Z,17.43
2019-05-19T07:27:23.015Z,17.43
2019-05-19T07:28:23.026Z,17.28
2019-05-19T07:29:23.036Z,17.21
2019-05-19T07:30:23.012Z,16.94
2019-05-19T07:31:22.972Z,16.94
2019-05-19T07:32:22.999Z,16.79
2019-05-19T07:33:22.954Z,16.57
2019-05-19T07:34:22.928Z,16.71
2019-05-19T07:35:23.025Z,16.75
2019-05-19T07:36:22.906Z,16.66
2019-05-19T07:37:22.918Z,16.67
2019-05-19T07:38:22.895Z,16.70
2019-05-19T07:39:22.902Z,16.83
2019-05-19T07:40:22.917Z,16.93
2019-05-19T07:41:23.860Z,16.82
2019-05-19T07:42:22.882Z,16.91
2019-05-19T07:43:22.849Z,17.01
2019-05-19T07:44:22.812Z,17.12
2019-05-19T07:45:22.806Z,17.23
2019-05-19T07:46:22.877Z,17.19
2019-05-19T07:47:22.789Z,17.26
2019-05-19T07:48:22.785Z,17.40
2019-05-19T07:49:22.793Z,17.12
2019-05-19T07:50:22.799Z,17.16
2019-05-19T07:51:22.771Z,16.91
2019-05-19T07:52:22.775Z,16.89
2019-05-19T07:53:22.711Z,17.03
2019-05-19T07:54:22.749Z,16.98
2019-05-19T07:55:22.686Z,17.12
2019-05-19T07:56:22.743Z,17.28
2019-05-19T07:57:22.718Z,17.40
2019-05-19T07:58:22.655Z,17.41
2019-05-19T07:59:22.682Z,17.54
2019-05-19T08:00:22.661Z,17.52
2019-05-19T08:01:22.630Z,17.46
2019-05-19T08:02:22.678Z,17.43
2019-05-19T08:03:22.665Z,17.48
2019-05-19T08:04:22.638Z,17.56
2019-05-19T08:05:22.609Z,17.63
2019-05-19T08:06:22.566Z,17.78
2019-05-19T08:07:22.562Z,18.03
2019-05-19T08:08:22.592Z,18.15
2019-05-19T08:09:22.620Z,18.14
2019-05-19T08:10:22.518Z,18.14
2019-05-19T08:11:22.503Z,18.03
2019-05-19T08:12:22.494Z,17.89
2019-05-19T08:13:22.481Z,17.86
2019-05-19T08:14:22.561Z,17.84
2019-05-19T08:15:22.526Z,17.70
2019-05-19T08:16:22.475Z,17.68
2019-05-19T08:17:25.754Z,17.63
2019-05-19T08:18:22.470Z,17.56
2019-05-19T08:19:22.419Z,17.64
2019-05-19T08:20:22.449Z,17.78
2019-05-19T08:21:22.401Z,17.93
2019-05-19T08:22:22.387Z,18.17
2019-05-19T08:23:22.372Z,18.25
2019-05-19T08:24:22.445Z,18.21
2019-05-19T08:25:22.343Z,18.47
2019-05-19T08:26:22.405Z,18.70
2019-05-19T08:27:22.324Z,18.81
2019-05-19T08:28:22.340Z,18.98
2019-05-19T08:29:22.347Z,19.08
2019-05-19T08:30:22.306Z,19.16
2019-05-19T08:31:22.282Z,19.32
2019-05-19T08:32:22.283Z,19.48
2019-05-19T08:33:22.289Z,19.56
2019-05-19T08:34:22.241Z,19.29
2019-05-19T08:35:22.229Z,19.25
2019-05-19T08:36:22.233Z,19.22
2019-05-19T08:37:22.248Z,19.16
2019-05-19T08:38:22.206Z,19.28
2019-05-19T08:39:22.247Z,19.31
2019-05-19T08:40:22.187Z,19.41
2019-05-19T08:41:22.179Z,19.55
2019-05-19T08:42:22.153Z,19.63
2019-05-19T08:43:22.172Z,19.47
2019-05-19T08:44:22.136Z,19.54
2019-05-19T08:45:22.158Z,19.51
2019-05-19T08:46:22.111Z,19.50
2019-05-19T08:47:22.129Z,19.50
2019-05-19T08:48:22.108Z,19.36
2019-05-19T08:49:22.258Z,19.28
2019-05-19T08:50:22.106Z,19.37
2019-05-19T08:51:22.050Z,19.50
2019-05-19T08:52:22.043Z,19.62
2019-05-19T08:53:22.058Z,19.58
2019-05-19T08:54:22.070Z,19.58
2019-05-19T08:55:22.010Z,19.63
2019-05-19T08:56:22.051Z,19.74
2019-05-19T08:57:21.973Z,19.94
2019-05-19T08:58:21.971Z,20.16
2019-05-19T08:59:22.004Z,20.23
2019-05-19T09:00:22.011Z,20.36
2019-05-19T09:01:21.949Z,20.57
2019-05-19T09:02:21.923Z,20.67
2019-05-19T09:03:21.985Z,20.84
2019-05-19T09:04:21.903Z,21.01
2019-05-19T09:05:22.017Z,20.79
2019-05-19T09:06:22.916Z,20.42
2019-05-19T09:07:21.865Z,20.62
2019-05-19T09:08:21.872Z,20.79
2019-05-19T09:09:21.843Z,20.88
2019-05-19T09:10:21.834Z,20.91
2019-05-19T09:11:21.979Z,21.16
2019-05-19T09:12:21.849Z,21.10
2019-05-19T09:13:21.805Z,21.17
2019-05-19T09:14:21.844Z,21.27
2019-05-19T09:15:21.784Z,21.35
2019-05-19T09:16:21.821Z,21.52
2019-05-19T09:17:22.581Z,21.62
2019-05-19T09:18:21.743Z,21.90
2019-05-19T09:19:21.745Z,21.94
2019-05-19T09:20:21.726Z,22.14
2019-05-19T09:21:21.780Z,22.03
2019-05-19T09:22:21.740Z,22.10
2019-05-19T09:23:21.688Z,21.72
2019-05-19T09:24:30.124Z,21.17
2019-05-19T09:25:22.671Z,20.84
2019-05-19T09:26:21.654Z,20.80
2019-05-19T09:27:21.787Z,20.89
2019-05-19T09:28:21.653Z,21.12
2019-05-19T09:29:21.689Z,21.19
2019-05-19T09:30:21.626Z,21.35
2019-05-19T09:31:21.624Z,21.42
2019-05-19T09:32:21.582Z,21.40
2019-05-19T09:33:21.598Z,21.37
2019-05-19T09:34:21.643Z,21.58
2019-05-19T09:35:21.617Z,21.65
2019-05-19T09:36:21.542Z,21.79
2019-05-19T09:37:21.530Z,21.90
2019-05-19T09:38:21.603Z,21.94
2019-05-19T09:39:21.516Z,21.96
2019-05-19T09:40:21.505Z,21.98
2019-05-19T09:41:21.499Z,22.02
2019-05-19T09:42:21.474Z,22.07
2019-05-19T09:43:21.505Z,22.12
2019-05-19T09:44:21.509Z,22.10
2019-05-19T09:45:21.445Z,22.21
2019-05-19T09:46:21.427Z,22.27
2019-05-19T09:47:21.415Z,22.37
2019-05-19T09:48:21.399Z,22.22
2019-05-19T09:49:21.393Z,22.21
2019-05-19T09:50:21.418Z,22.28
2019-05-19T09:51:21.391Z,22.25
2019-05-19T09:52:21.372Z,21.92
2019-05-19T09:53:21.354Z,21.59
2019-05-19T09:54:21.354Z,21.31
2019-05-19T09:55:21.358Z,21.25
2019-05-19T09:56:21.331Z,21.22
2019-05-19T09:57:21.322Z,21.28
2019-05-19T09:58:21.307Z,21.46
2019-05-19T09:59:21.276Z,21.49
2019-05-19T10:00:21.270Z,21.50
2019-05-19T10:01:21.337Z,21.31
2019-05-19T10:02:21.244Z,21.09
2019-05-19T10:03:21.242Z,21.07
2019-05-19T10:04:21.260Z,21.25
2019-05-19T10:05:21.220Z,21.16
2019-05-19T10:06:21.243Z,20.97
2019-05-19T10:07:21.192Z,20.97
2019-05-19T10:08:21.193Z,21.21
2019-05-19T10:09:21.197Z,20.98
2019-05-19T10:10:21.164Z,20.59
2019-05-19T10:11:21.169Z,20.38
2019-05-19T10:12:21.191Z,20.43
2019-05-19T10:13:21.134Z,20.80
2019-05-19T10:14:21.117Z,20.80
2019-05-19T10:15:21.101Z,20.94
2019-05-19T10:16:21.120Z,21.17
2019-05-19T10:17:21.121Z,20.95
2019-05-19T10:18:21.067Z,21.10
2019-05-19T10:19:21.066Z,21.22
2019-05-19T10:20:21.048Z,21.29
2019-05-19T10:21:21.048Z,21.43
2019-05-19T10:22:21.031Z,21.27
2019-05-19T10:23:21.060Z,21.37
2019-05-19T10:24:21.002Z,21.49
2019-05-19T10:25:22.859Z,21.77
2019-05-19T10:26:21.024Z,21.99
2019-05-19T10:27:21.843Z,22.17
2019-05-19T10:28:20.951Z,22.10
2019-05-19T10:29:20.957Z,22.03
2019-05-19T10:30:20.924Z,22.00
2019-05-19T10:31:20.938Z,22.17
2019-05-19T10:32:20.923Z,22.25
2019-05-19T10:33:20.898Z,22.42
2019-05-19T10:34:20.942Z,22.45
2019-05-19T10:35:20.879Z,22.57
2019-05-19T10:36:20.921Z,22.76
2019-05-19T10:37:20.863Z,22.51
2019-05-19T10:38:20.871Z,21.96
2019-05-19T10:39:20.824Z,21.92
2019-05-19T10:40:20.870Z,22.14
2019-05-19T10:41:20.861Z,22.36
2019-05-19T10:42:20.806Z,21.88
2019-05-19T10:43:20.789Z,21.32
2019-05-19T10:44:20.827Z,21.29
2019-05-19T10:45:20.801Z,21.35
2019-05-19T10:46:20.780Z,21.49
2019-05-19T10:47:20.737Z,20.94
2019-05-19T10:48:20.750Z,20.98
2019-05-19T10:49:20.726Z,21.21
2019-05-19T10:50:20.709Z,21.47
2019-05-19T10:51:20.694Z,21.88
2019-05-19T10:52:20.693Z,22.06
2019-05-19T10:53:20.713Z,21.90
2019-05-19T10:54:20.694Z,21.75
2019-05-19T10:55:20.649Z,21.88
2019-05-19T10:56:20.636Z,21.91
2019-05-19T10:57:20.673Z,21.86
2019-05-19T10:58:20.617Z,21.74
2019-05-19T10:59:20.600Z,21.10
2019-05-19T11:00:20.592Z,20.98
2019-05-19T11:01:20.639Z,21.21
2019-05-19T11:02:20.578Z,21.53
2019-05-19T11:03:20.569Z,21.71
2019-05-19T11:04:20.554Z,21.67
2019-05-19T11:05:20.603Z,21.61
2019-05-19T11:06:20.539Z,21.84
2019-05-19T11:07:20.529Z,22.15
2019-05-19T11:08:20.539Z,22.51
2019-05-19T11:09:20.495Z,22.67
2019-05-19T11:10:20.489Z,22.86
2019-05-19T11:11:20.484Z,22.77
2019-05-19T11:12:20.480Z,22.43
2019-05-19T11:13:20.450Z,22.14
2019-05-19T11:14:20.506Z,21.72
2019-05-19T11:15:20.427Z,21.52
2019-05-19T11:16:20.413Z,21.47
2019-05-19T11:17:20.415Z,21.12
2019-05-19T11:18:20.398Z,21.29
2019-05-19T11:19:20.416Z,21.65
2019-05-19T11:20:20.384Z,21.69
2019-05-19T11:21:20.354Z,21.80
2019-05-19T11:22:20.345Z,21.82
2019-05-19T11:23:20.333Z,21.79
2019-05-19T11:24:20.337Z,21.98
2019-05-19T11:25:32.993Z,22.25
2019-05-19T11:26:21.337Z,22.52
2019-05-19T11:27:20.296Z,22.86
2019-05-19T11:28:20.291Z,22.86
2019-05-19T11:29:20.264Z,22.97
2019-05-19T11:30:20.253Z,23.13
2019-05-19T11:31:20.301Z,23.13
2019-05-19T11:32:20.244Z,23.31
2019-05-19T11:33:20.225Z,23.28
2019-05-19T11:34:20.238Z,23.05
2019-05-19T11:35:20.189Z,22.91
2019-05-19T11:36:20.292Z,22.86
2019-05-19T11:37:20.250Z,22.62
2019-05-19T11:38:20.171Z,22.57
2019-05-19T11:39:20.150Z,22.65
2019-05-19T11:40:20.159Z,22.86
2019-05-19T11:41:20.171Z,22.97
2019-05-19T11:42:20.166Z,22.91
2019-05-19T11:43:20.111Z,22.65
2019-05-19T11:44:20.109Z,22.58
2019-05-19T11:45:20.144Z,22.49
2019-05-19T11:46:20.109Z,22.39
2019-05-19T11:47:20.061Z,22.10
2019-05-19T11:48:20.105Z,22.21
2019-05-19T11:49:20.043Z,22.27
2019-05-19T11:50:20.076Z,22.18
2019-05-19T11:51:20.034Z,22.21
2019-05-19T11:52:20.000Z,22.58
2019-05-19T11:53:20.021Z,22.90
2019-05-19T11:54:19.996Z,23.00
2019-05-19T11:55:20.044Z,22.95
2019-05-19T11:56:19.999Z,23.23
2019-05-19T11:57:19.995Z,23.09
2019-05-19T11:58:19.958Z,22.83
2019-05-19T11:59:19.994Z,22.86
2019-05-19T12:00:19.949Z,23.13
2019-05-19T12:01:19.918Z,23.22
2019-05-19T12:02:19.914Z,23.47
2019-05-19T12:03:19.914Z,22.86
2019-05-19T12:04:19.925Z,22.36
2019-05-19T12:05:19.925Z,22.06
2019-05-19T12:06:19.871Z,22.10
2019-05-19T12:07:19.886Z,22.05
2019-05-19T12:08:19.849Z,22.12
2019-05-19T12:09:19.846Z,21.99
2019-05-19T12:10:19.807Z,22.14
2019-05-19T12:11:19.825Z,22.10
2019-05-19T12:12:19.829Z,22.31
2019-05-19T12:13:19.816Z,22.57
2019-05-19T12:14:19.770Z,22.76
2019-05-19T12:15:19.805Z,22.79
2019-05-19T12:16:19.773Z,22.33
2019-05-19T12:17:19.737Z,21.82
2019-05-19T12:18:19.739Z,21.80
2019-05-19T12:19:19.723Z,22.00
2019-05-19T12:20:19.714Z,22.18
2019-05-19T12:21:19.686Z,22.30
2019-05-19T12:22:19.785Z,22.47
2019-05-19T12:23:19.670Z,22.28
2019-05-19T12:24:19.646Z,22.49
2019-05-19T12:25:19.662Z,22.68
2019-05-19T12:26:23.195Z,22.64
2019-05-19T12:27:19.621Z,22.40
2019-05-19T12:28:19.620Z,21.92
2019-05-19T12:29:19.628Z,21.77
2019-05-19T12:30:19.598Z,21.88
2019-05-19T12:31:19.603Z,21.92
2019-05-19T12:32:19.557Z,22.03
2019-05-19T12:33:19.609Z,22.20
2019-05-19T12:34:19.538Z,22.42
2019-05-19T12:35:19.525Z,22.70
2019-05-19T12:36:19.540Z,22.83
2019-05-19T12:37:19.489Z,22.95
2019-05-19T12:38:19.498Z,22.94
2019-05-19T12:39:19.569Z,22.88
2019-05-19T12:40:22.461Z,22.86
2019-05-19T12:41:19.486Z,22.94
2019-05-19T12:42:19.459Z,23.05
2019-05-19T12:43:19.443Z,23.31
2019-05-19T12:44:19.424Z,23.58
2019-05-19T12:45:19.531Z,23.87
2019-05-19T12:46:19.417Z,23.42
2019-05-19T12:47:19.397Z,23.31
2019-05-19T12:48:19.385Z,23.20
2019-05-19T12:49:19.372Z,23.25
2019-05-19T12:50:19.411Z,23.20
2019-05-19T12:51:19.373Z,22.88
2019-05-19T12:52:19.391Z,22.85
2019-05-19T12:53:19.332Z,22.92
2019-05-19T12:54:19.316Z,23.12
2019-05-19T12:55:19.302Z,23.27
2019-05-19T12:56:19.350Z,22.67
2019-05-19T12:57:21.341Z,22.60
2019-05-19T12:58:19.277Z,22.21
2019-05-19T12:59:19.276Z,22.17
2019-05-19T13:00:19.273Z,22.14